sensor_id;sensor_type;location;lat;lon;timestamp;P1;durP1;ratioP1;P2;durP2;ratioP2
24305;SDS011;12423;48.768;8.850;2022-08-23T00:01:06;4.40;;;3.20;;
24305;SDS011;12423;48.768;8.850;2022-08-23T00:03:10;7.32;;;3.88;;
24305;SDS011;12423;48.768;8.850;2022-08-23T00:05:11;5.82;;;3.58;;
24305;SDS011;12423;48.768;8.850;2022-08-23T00:07:12;6.03;;;3.58;;
24305;SDS011;12423;48.768;8.850;2022-08-23T00:09:16;6.53;;;3.40;;
24305;SDS011;12423;48.768;8.850;2022-08-23T00:13:33;6.43;;;3.50;;
24305;SDS011;12423;48.768;8.850;2022-08-23T00:15:34;8.20;;;3.28;;
24305;SDS011;12423;48.768;8.850;2022-08-23T00:17:35;5.57;;;3.38;;
24305;SDS011;12423;48.768;8.850;2022-08-23T00:19:36;5.10;;;3.85;;
24305;SDS011;12423;48.768;8.850;2022-08-23T00:21:39;5.53;;;3.83;;
24305;SDS011;12423;48.768;8.850;2022-08-23T00:23:40;5.88;;;3.83;;
24305;SDS011;12423;48.768;8.850;2022-08-23T00:25:42;4.55;;;3.33;;
24305;SDS011;12423;48.768;8.850;2022-08-23T00:27:43;11.63;;;3.40;;
24305;SDS011;12423;48.768;8.850;2022-08-23T00:29:48;6.90;;;3.42;;
24305;SDS011;12423;48.768;8.850;2022-08-23T00:31:50;4.82;;;3.28;;
24305;SDS011;12423;48.768;8.850;2022-08-23T00:33:52;7.07;;;3.83;;
24305;SDS011;12423;48.768;8.850;2022-08-23T00:35:53;5.80;;;3.65;;
24305;SDS011;12423;48.768;8.850;2022-08-23T00:37:55;6.50;;;3.60;;
24305;SDS011;12423;48.768;8.850;2022-08-23T00:39:57;6.47;;;3.90;;
24305;SDS011;12423;48.768;8.850;2022-08-23T00:42:02;4.88;;;3.50;;
24305;SDS011;12423;48.768;8.850;2022-08-23T00:44:31;8.25;;;3.90;;
24305;SDS011;12423;48.768;8.850;2022-08-23T00:46:53;5.50;;;3.67;;
24305;SDS011;12423;48.768;8.850;2022-08-23T00:49:15;5.63;;;3.80;;
24305;SDS011;12423;48.768;8.850;2022-08-23T00:51:19;5.18;;;3.55;;
24305;SDS011;12423;48.768;8.850;2022-08-23T00:53:24;7.25;;;3.67;;
24305;SDS011;12423;48.768;8.850;2022-08-23T00:55:32;5.82;;;3.88;;
24305;SDS011;12423;48.768;8.850;2022-08-23T00:57:33;5.63;;;3.70;;
24305;SDS011;12423;48.768;8.850;2022-08-23T00:59:37;6.20;;;3.78;;
24305;SDS011;12423;48.768;8.850;2022-08-23T01:01:38;5.88;;;3.42;;
24305;SDS011;12423;48.768;8.850;2022-08-23T01:03:40;6.72;;;3.65;;
24305;SDS011;12423;48.768;8.850;2022-08-23T01:05:50;5.97;;;3.83;;
24305;SDS011;12423;48.768;8.850;2022-08-23T01:08:13;6.32;;;3.97;;
24305;SDS011;12423;48.768;8.850;2022-08-23T01:10:19;7.00;;;4.00;;
24305;SDS011;12423;48.768;8.850;2022-08-23T01:12:36;5.90;;;3.90;;
24305;SDS011;12423;48.768;8.850;2022-08-23T01:14:46;6.80;;;3.80;;
24305;SDS011;12423;48.768;8.850;2022-08-23T01:19:07;6.70;;;3.42;;
24305;SDS011;12423;48.768;8.850;2022-08-23T01:22:00;7.25;;;3.63;;
24305;SDS011;12423;48.768;8.850;2022-08-23T01:23:50;5.90;;;3.53;;
24305;SDS011;12423;48.768;8.850;2022-08-23T01:25:54;5.70;;;3.55;;
24305;SDS011;12423;48.768;8.850;2022-08-23T01:27:56;7.60;;;3.88;;
24305;SDS011;12423;48.768;8.850;2022-08-23T01:29:57;6.18;;;3.97;;
24305;SDS011;12423;48.768;8.850;2022-08-23T01:31:58;6.03;;;3.50;;
24305;SDS011;12423;48.768;8.850;2022-08-23T01:34:03;5.20;;;3.85;;
24305;SDS011;12423;48.768;8.850;2022-08-23T01:36:10;7.23;;;4.33;;
24305;SDS011;12423;48.768;8.850;2022-08-23T01:38:13;7.22;;;3.50;;
24305;SDS011;12423;48.768;8.850;2022-08-23T01:40:17;6.32;;;4.28;;
24305;SDS011;12423;48.768;8.850;2022-08-23T01:42:18;7.57;;;3.95;;
24305;SDS011;12423;48.768;8.850;2022-08-23T01:44:19;5.78;;;4.13;;
24305;SDS011;12423;48.768;8.850;2022-08-23T01:46:21;5.00;;;3.55;;
24305;SDS011;12423;48.768;8.850;2022-08-23T01:48:25;5.40;;;3.72;;
24305;SDS011;12423;48.768;8.850;2022-08-23T01:50:26;7.80;;;4.22;;
24305;SDS011;12423;48.768;8.850;2022-08-23T01:52:29;6.30;;;3.60;;
24305;SDS011;12423;48.768;8.850;2022-08-23T01:54:30;4.72;;;3.45;;
24305;SDS011;12423;48.768;8.850;2022-08-23T01:56:32;5.93;;;3.65;;
24305;SDS011;12423;48.768;8.850;2022-08-23T01:58:34;6.63;;;3.97;;
24305;SDS011;12423;48.768;8.850;2022-08-23T02:00:37;6.00;;;3.80;;
24305;SDS011;12423;48.768;8.850;2022-08-23T02:02:40;9.48;;;3.85;;
24305;SDS011;12423;48.768;8.850;2022-08-23T02:04:41;7.65;;;4.18;;
24305;SDS011;12423;48.768;8.850;2022-08-23T02:06:42;5.72;;;3.67;;
24305;SDS011;12423;48.768;8.850;2022-08-23T02:08:48;5.70;;;3.70;;
24305;SDS011;12423;48.768;8.850;2022-08-23T02:11:12;5.97;;;3.85;;
24305;SDS011;12423;48.768;8.850;2022-08-23T02:13:15;7.32;;;3.92;;
24305;SDS011;12423;48.768;8.850;2022-08-23T02:15:17;4.70;;;4.00;;
24305;SDS011;12423;48.768;8.850;2022-08-23T02:17:21;5.57;;;4.35;;
24305;SDS011;12423;48.768;8.850;2022-08-23T02:19:22;5.60;;;3.67;;
24305;SDS011;12423;48.768;8.850;2022-08-23T02:21:23;6.70;;;3.78;;
24305;SDS011;12423;48.768;8.850;2022-08-23T02:23:26;4.63;;;3.90;;
24305;SDS011;12423;48.768;8.850;2022-08-23T02:25:27;6.05;;;4.10;;
24305;SDS011;12423;48.768;8.850;2022-08-23T02:27:28;5.93;;;3.92;;
24305;SDS011;12423;48.768;8.850;2022-08-23T02:29:30;7.70;;;3.92;;
24305;SDS011;12423;48.768;8.850;2022-08-23T02:31:34;6.03;;;3.80;;
24305;SDS011;12423;48.768;8.850;2022-08-23T02:33:36;5.05;;;3.50;;
24305;SDS011;12423;48.768;8.850;2022-08-23T02:35:37;6.03;;;3.85;;
24305;SDS011;12423;48.768;8.850;2022-08-23T02:37:38;5.85;;;3.72;;
24305;SDS011;12423;48.768;8.850;2022-08-23T02:39:40;6.88;;;3.88;;
24305;SDS011;12423;48.768;8.850;2022-08-23T02:41:42;6.55;;;3.80;;
24305;SDS011;12423;48.768;8.850;2022-08-23T02:43:45;5.50;;;3.95;;
24305;SDS011;12423;48.768;8.850;2022-08-23T02:45:46;6.45;;;4.20;;
24305;SDS011;12423;48.768;8.850;2022-08-23T02:47:48;8.52;;;4.25;;
24305;SDS011;12423;48.768;8.850;2022-08-23T02:49:59;7.47;;;3.67;;
24305;SDS011;12423;48.768;8.850;2022-08-23T02:52:00;9.38;;;4.05;;
24305;SDS011;12423;48.768;8.850;2022-08-23T02:54:01;6.97;;;4.20;;
24305;SDS011;12423;48.768;8.850;2022-08-23T02:56:03;7.18;;;4.13;;
24305;SDS011;12423;48.768;8.850;2022-08-23T02:58:05;6.07;;;4.10;;
24305;SDS011;12423;48.768;8.850;2022-08-23T03:00:07;9.48;;;4.00;;
24305;SDS011;12423;48.768;8.850;2022-08-23T03:02:10;7.55;;;4.07;;
24305;SDS011;12423;48.768;8.850;2022-08-23T03:04:15;5.75;;;3.80;;
24305;SDS011;12423;48.768;8.850;2022-08-23T03:06:16;8.00;;;4.03;;
24305;SDS011;12423;48.768;8.850;2022-08-23T03:08:18;6.22;;;4.00;;
24305;SDS011;12423;48.768;8.850;2022-08-23T03:10:22;6.20;;;4.13;;
24305;SDS011;12423;48.768;8.850;2022-08-23T03:12:29;5.93;;;4.18;;
24305;SDS011;12423;48.768;8.850;2022-08-23T03:14:30;4.82;;;3.92;;
24305;SDS011;12423;48.768;8.850;2022-08-23T03:16:31;5.68;;;4.10;;
24305;SDS011;12423;48.768;8.850;2022-08-23T03:18:33;7.60;;;4.00;;
24305;SDS011;12423;48.768;8.850;2022-08-23T03:20:35;5.32;;;4.00;;
24305;SDS011;12423;48.768;8.850;2022-08-23T03:22:37;6.07;;;3.70;;
24305;SDS011;12423;48.768;8.850;2022-08-23T03:24:38;6.55;;;3.90;;
24305;SDS011;12423;48.768;8.850;2022-08-23T03:26:42;8.10;;;4.10;;
24305;SDS011;12423;48.768;8.850;2022-08-23T03:28:46;6.70;;;4.50;;
24305;SDS011;12423;48.768;8.850;2022-08-23T03:30:47;5.80;;;4.07;;
24305;SDS011;12423;48.768;8.850;2022-08-23T03:32:48;6.55;;;4.43;;
24305;SDS011;12423;48.768;8.850;2022-08-23T03:34:51;7.03;;;4.50;;
24305;SDS011;12423;48.768;8.850;2022-08-23T03:36:52;7.40;;;3.95;;
24305;SDS011;12423;48.768;8.850;2022-08-23T03:38:54;5.60;;;4.20;;
24305;SDS011;12423;48.768;8.850;2022-08-23T03:40:56;6.22;;;4.05;;
24305;SDS011;12423;48.768;8.850;2022-08-23T03:42:58;5.35;;;3.80;;
24305;SDS011;12423;48.768;8.850;2022-08-23T03:45:01;6.05;;;4.57;;
24305;SDS011;12423;48.768;8.850;2022-08-23T03:47:03;5.93;;;4.18;;
24305;SDS011;12423;48.768;8.850;2022-08-23T03:49:05;7.55;;;3.80;;
24305;SDS011;12423;48.768;8.850;2022-08-23T03:51:17;7.97;;;4.40;;
24305;SDS011;12423;48.768;8.850;2022-08-23T03:53:19;4.47;;;3.72;;
24305;SDS011;12423;48.768;8.850;2022-08-23T03:55:21;5.68;;;4.03;;
24305;SDS011;12423;48.768;8.850;2022-08-23T03:57:23;6.40;;;4.15;;
24305;SDS011;12423;48.768;8.850;2022-08-23T03:59:25;5.40;;;3.92;;
24305;SDS011;12423;48.768;8.850;2022-08-23T04:01:27;6.10;;;4.15;;
24305;SDS011;12423;48.768;8.850;2022-08-23T04:03:29;6.78;;;4.40;;
24305;SDS011;12423;48.768;8.850;2022-08-23T04:05:35;5.60;;;4.25;;
24305;SDS011;12423;48.768;8.850;2022-08-23T04:07:39;6.10;;;4.13;;
24305;SDS011;12423;48.768;8.850;2022-08-23T04:09:40;5.70;;;4.07;;
24305;SDS011;12423;48.768;8.850;2022-08-23T04:11:41;6.45;;;4.30;;
24305;SDS011;12423;48.768;8.850;2022-08-23T04:13:43;5.85;;;4.28;;
24305;SDS011;12423;48.768;8.850;2022-08-23T04:15:45;7.68;;;4.78;;
24305;SDS011;12423;48.768;8.850;2022-08-23T04:17:46;7.95;;;4.30;;
24305;SDS011;12423;48.768;8.850;2022-08-23T04:19:48;6.85;;;4.22;;
24305;SDS011;12423;48.768;8.850;2022-08-23T04:21:50;9.98;;;4.88;;
24305;SDS011;12423;48.768;8.850;2022-08-23T04:23:52;9.23;;;4.63;;
24305;SDS011;12423;48.768;8.850;2022-08-23T04:25:54;8.50;;;3.90;;
24305;SDS011;12423;48.768;8.850;2022-08-23T04:27:55;6.43;;;5.00;;
24305;SDS011;12423;48.768;8.850;2022-08-23T04:29:56;5.38;;;4.28;;
24305;SDS011;12423;48.768;8.850;2022-08-23T04:31:58;7.70;;;4.18;;
24305;SDS011;12423;48.768;8.850;2022-08-23T04:33:59;6.95;;;4.78;;
24305;SDS011;12423;48.768;8.850;2022-08-23T04:36:02;6.47;;;4.40;;
24305;SDS011;12423;48.768;8.850;2022-08-23T04:38:03;7.50;;;4.88;;
24305;SDS011;12423;48.768;8.850;2022-08-23T04:40:05;8.10;;;4.90;;
24305;SDS011;12423;48.768;8.850;2022-08-23T04:42:26;8.93;;;4.97;;
24305;SDS011;12423;48.768;8.850;2022-08-23T04:44:27;6.38;;;4.50;;
24305;SDS011;12423;48.768;8.850;2022-08-23T04:46:33;7.07;;;4.15;;
24305;SDS011;12423;48.768;8.850;2022-08-23T04:48:36;7.85;;;4.72;;
24305;SDS011;12423;48.768;8.850;2022-08-23T04:50:37;7.70;;;4.28;;
24305;SDS011;12423;48.768;8.850;2022-08-23T04:52:48;4.88;;;3.90;;
24305;SDS011;12423;48.768;8.850;2022-08-23T04:54:49;6.75;;;4.15;;
24305;SDS011;12423;48.768;8.850;2022-08-23T04:57:08;6.40;;;4.20;;
24305;SDS011;12423;48.768;8.850;2022-08-23T04:59:11;5.10;;;3.60;;
24305;SDS011;12423;48.768;8.850;2022-08-23T05:01:13;6.07;;;4.75;;
24305;SDS011;12423;48.768;8.850;2022-08-23T05:03:19;7.50;;;4.78;;
24305;SDS011;12423;48.768;8.850;2022-08-23T05:05:21;6.97;;;4.70;;
24305;SDS011;12423;48.768;8.850;2022-08-23T05:07:23;5.05;;;3.90;;
24305;SDS011;12423;48.768;8.850;2022-08-23T05:09:24;8.13;;;4.63;;
24305;SDS011;12423;48.768;8.850;2022-08-23T05:11:26;6.88;;;4.53;;
24305;SDS011;12423;48.768;8.850;2022-08-23T05:13:29;8.27;;;4.43;;
24305;SDS011;12423;48.768;8.850;2022-08-23T05:15:31;6.07;;;4.40;;
24305;SDS011;12423;48.768;8.850;2022-08-23T05:17:37;7.85;;;4.20;;
24305;SDS011;12423;48.768;8.850;2022-08-23T05:19:39;6.85;;;4.68;;
24305;SDS011;12423;48.768;8.850;2022-08-23T05:21:40;5.90;;;4.20;;
24305;SDS011;12423;48.768;8.850;2022-08-23T05:23:41;6.38;;;4.05;;
24305;SDS011;12423;48.768;8.850;2022-08-23T05:25:49;19.52;;;6.55;;
24305;SDS011;12423;48.768;8.850;2022-08-23T05:27:55;7.90;;;4.43;;
24305;SDS011;12423;48.768;8.850;2022-08-23T05:29:56;6.00;;;3.97;;
24305;SDS011;12423;48.768;8.850;2022-08-23T05:31:58;6.15;;;4.13;;
24305;SDS011;12423;48.768;8.850;2022-08-23T05:33:59;7.90;;;4.45;;
24305;SDS011;12423;48.768;8.850;2022-08-23T05:36:07;5.90;;;4.35;;
24305;SDS011;12423;48.768;8.850;2022-08-23T05:38:11;6.40;;;4.90;;
24305;SDS011;12423;48.768;8.850;2022-08-23T05:40:13;7.78;;;4.45;;
24305;SDS011;12423;48.768;8.850;2022-08-23T05:42:27;5.18;;;4.30;;
24305;SDS011;12423;48.768;8.850;2022-08-23T05:44:28;7.07;;;4.57;;
24305;SDS011;12423;48.768;8.850;2022-08-23T05:46:29;5.90;;;4.25;;
24305;SDS011;12423;48.768;8.850;2022-08-23T05:50:53;7.18;;;4.40;;
24305;SDS011;12423;48.768;8.850;2022-08-23T05:52:54;5.95;;;4.25;;
24305;SDS011;12423;48.768;8.850;2022-08-23T05:54:56;5.65;;;4.38;;
24305;SDS011;12423;48.768;8.850;2022-08-23T05:57:23;6.10;;;4.70;;
24305;SDS011;12423;48.768;8.850;2022-08-23T05:59:24;7.38;;;4.25;;
24305;SDS011;12423;48.768;8.850;2022-08-23T06:01:27;5.60;;;4.60;;
24305;SDS011;12423;48.768;8.850;2022-08-23T06:03:32;7.07;;;4.22;;
24305;SDS011;12423;48.768;8.850;2022-08-23T06:05:36;7.88;;;4.32;;
24305;SDS011;12423;48.768;8.850;2022-08-23T06:07:39;6.30;;;4.80;;
24305;SDS011;12423;48.768;8.850;2022-08-23T06:09:41;6.00;;;4.28;;
24305;SDS011;12423;48.768;8.850;2022-08-23T06:11:44;6.53;;;4.78;;
24305;SDS011;12423;48.768;8.850;2022-08-23T06:13:53;6.70;;;4.68;;
24305;SDS011;12423;48.768;8.850;2022-08-23T06:16:03;10.43;;;4.70;;
24305;SDS011;12423;48.768;8.850;2022-08-23T06:18:05;6.07;;;4.32;;
24305;SDS011;12423;48.768;8.850;2022-08-23T06:20:07;10.40;;;4.47;;
24305;SDS011;12423;48.768;8.850;2022-08-23T06:22:23;7.97;;;4.40;;
24305;SDS011;12423;48.768;8.850;2022-08-23T06:24:24;8.73;;;5.10;;
24305;SDS011;12423;48.768;8.850;2022-08-23T06:26:45;8.45;;;4.60;;
24305;SDS011;12423;48.768;8.850;2022-08-23T06:28:50;5.80;;;4.53;;
24305;SDS011;12423;48.768;8.850;2022-08-23T06:30:55;7.20;;;5.28;;
24305;SDS011;12423;48.768;8.850;2022-08-23T06:33:19;7.70;;;4.80;;
24305;SDS011;12423;48.768;8.850;2022-08-23T06:35:20;7.00;;;4.47;;
24305;SDS011;12423;48.768;8.850;2022-08-23T06:37:33;6.75;;;4.38;;
24305;SDS011;12423;48.768;8.850;2022-08-23T06:39:40;12.85;;;4.70;;
24305;SDS011;12423;48.768;8.850;2022-08-23T06:41:59;9.45;;;5.10;;
24305;SDS011;12423;48.768;8.850;2022-08-23T06:44:04;6.07;;;4.40;;
24305;SDS011;12423;48.768;8.850;2022-08-23T06:46:27;6.88;;;4.72;;
24305;SDS011;12423;48.768;8.850;2022-08-23T06:48:29;7.93;;;4.75;;
24305;SDS011;12423;48.768;8.850;2022-08-23T06:50:30;8.27;;;4.40;;
24305;SDS011;12423;48.768;8.850;2022-08-23T06:52:54;8.25;;;4.72;;
24305;SDS011;12423;48.768;8.850;2022-08-23T06:55:18;7.72;;;4.32;;
24305;SDS011;12423;48.768;8.850;2022-08-23T06:57:48;9.23;;;4.47;;
24305;SDS011;12423;48.768;8.850;2022-08-23T07:02:28;8.77;;;4.47;;
24305;SDS011;12423;48.768;8.850;2022-08-23T07:04:33;8.63;;;4.30;;
24305;SDS011;12423;48.768;8.850;2022-08-23T07:06:42;9.23;;;4.47;;
24305;SDS011;12423;48.768;8.850;2022-08-23T07:08:43;7.28;;;4.15;;
24305;SDS011;12423;48.768;8.850;2022-08-23T07:10:44;6.65;;;4.00;;
24305;SDS011;12423;48.768;8.850;2022-08-23T07:12:45;5.65;;;3.97;;
24305;SDS011;12423;48.768;8.850;2022-08-23T07:14:53;6.30;;;3.90;;
24305;SDS011;12423;48.768;8.850;2022-08-23T07:16:58;8.15;;;4.03;;
24305;SDS011;12423;48.768;8.850;2022-08-23T07:19:00;6.85;;;4.03;;
24305;SDS011;12423;48.768;8.850;2022-08-23T07:21:02;8.35;;;4.20;;
24305;SDS011;12423;48.768;8.850;2022-08-23T07:23:04;8.32;;;3.85;;
24305;SDS011;12423;48.768;8.850;2022-08-23T07:25:06;5.25;;;3.35;;
24305;SDS011;12423;48.768;8.850;2022-08-23T07:27:09;8.60;;;3.75;;
24305;SDS011;12423;48.768;8.850;2022-08-23T07:29:23;4.78;;;3.28;;
24305;SDS011;12423;48.768;8.850;2022-08-23T07:31:28;5.43;;;3.60;;
24305;SDS011;12423;48.768;8.850;2022-08-23T07:33:31;7.63;;;3.30;;
24305;SDS011;12423;48.768;8.850;2022-08-23T07:35:46;5.18;;;3.33;;
24305;SDS011;12423;48.768;8.850;2022-08-23T07:37:49;6.50;;;2.80;;
24305;SDS011;12423;48.768;8.850;2022-08-23T07:39:50;4.93;;;3.33;;
24305;SDS011;12423;48.768;8.850;2022-08-23T07:41:51;6.30;;;3.17;;
24305;SDS011;12423;48.768;8.850;2022-08-23T07:43:55;5.13;;;3.03;;
24305;SDS011;12423;48.768;8.850;2022-08-23T07:45:58;6.43;;;3.47;;
24305;SDS011;12423;48.768;8.850;2022-08-23T07:47:59;5.03;;;2.83;;
24305;SDS011;12423;48.768;8.850;2022-08-23T07:50:03;5.82;;;2.97;;
24305;SDS011;12423;48.768;8.850;2022-08-23T07:52:06;4.97;;;3.10;;
24305;SDS011;12423;48.768;8.850;2022-08-23T07:54:08;6.28;;;2.97;;
24305;SDS011;12423;48.768;8.850;2022-08-23T07:56:19;6.72;;;2.30;;
24305;SDS011;12423;48.768;8.850;2022-08-23T07:58:50;10.43;;;2.38;;
24305;SDS011;12423;48.768;8.850;2022-08-23T08:01:24;5.13;;;2.63;;
24305;SDS011;12423;48.768;8.850;2022-08-23T08:03:27;6.78;;;2.60;;
24305;SDS011;12423;48.768;8.850;2022-08-23T08:05:43;3.70;;;2.17;;
24305;SDS011;12423;48.768;8.850;2022-08-23T08:07:44;8.15;;;2.50;;
24305;SDS011;12423;48.768;8.850;2022-08-23T08:09:45;6.13;;;2.50;;
24305;SDS011;12423;48.768;8.850;2022-08-23T08:11:48;9.40;;;2.30;;
24305;SDS011;12423;48.768;8.850;2022-08-23T08:13:54;4.35;;;2.00;;
24305;SDS011;12423;48.768;8.850;2022-08-23T08:15:56;6.35;;;2.22;;
24305;SDS011;12423;48.768;8.850;2022-08-23T08:18:01;3.75;;;1.92;;
24305;SDS011;12423;48.768;8.850;2022-08-23T08:20:20;4.47;;;2.40;;
24305;SDS011;12423;48.768;8.850;2022-08-23T08:22:51;4.97;;;2.50;;
24305;SDS011;12423;48.768;8.850;2022-08-23T08:25:12;4.38;;;2.30;;
24305;SDS011;12423;48.768;8.850;2022-08-23T08:27:15;6.07;;;2.70;;
24305;SDS011;12423;48.768;8.850;2022-08-23T08:29:17;5.15;;;2.00;;
24305;SDS011;12423;48.768;8.850;2022-08-23T08:31:19;5.90;;;2.50;;
24305;SDS011;12423;48.768;8.850;2022-08-23T08:33:20;5.03;;;2.42;;
24305;SDS011;12423;48.768;8.850;2022-08-23T08:35:22;7.00;;;1.95;;
24305;SDS011;12423;48.768;8.850;2022-08-23T08:37:24;3.65;;;2.60;;
24305;SDS011;12423;48.768;8.850;2022-08-23T08:39:27;4.80;;;1.90;;
24305;SDS011;12423;48.768;8.850;2022-08-23T08:41:37;4.70;;;2.17;;
24305;SDS011;12423;48.768;8.850;2022-08-23T08:48:13;4.93;;;2.13;;
24305;SDS011;12423;48.768;8.850;2022-08-23T08:50:24;3.60;;;1.70;;
24305;SDS011;12423;48.768;8.850;2022-08-23T08:54:44;3.97;;;1.50;;
24305;SDS011;12423;48.768;8.850;2022-08-23T08:56:53;3.70;;;1.77;;
24305;SDS011;12423;48.768;8.850;2022-08-23T08:59:05;3.45;;;1.45;;
24305;SDS011;12423;48.768;8.850;2022-08-23T09:01:11;4.35;;;1.80;;
24305;SDS011;12423;48.768;8.850;2022-08-23T09:03:13;3.55;;;1.58;;
24305;SDS011;12423;48.768;8.850;2022-08-23T09:05:21;3.97;;;1.70;;
24305;SDS011;12423;48.768;8.850;2022-08-23T09:09:54;3.28;;;1.90;;
24305;SDS011;12423;48.768;8.850;2022-08-23T09:15:13;3.90;;;1.70;;
24305;SDS011;12423;48.768;8.850;2022-08-23T09:17:19;3.85;;;1.50;;
24305;SDS011;12423;48.768;8.850;2022-08-23T09:19:36;4.18;;;1.67;;
24305;SDS011;12423;48.768;8.850;2022-08-23T09:23:55;3.38;;;1.63;;
24305;SDS011;12423;48.768;8.850;2022-08-23T09:28:18;4.03;;;2.08;;
24305;SDS011;12423;48.768;8.850;2022-08-23T09:30:20;4.38;;;2.38;;
24305;SDS011;12423;48.768;8.850;2022-08-23T09:34:39;4.10;;;1.85;;
24305;SDS011;12423;48.768;8.850;2022-08-23T09:36:47;4.65;;;1.95;;
24305;SDS011;12423;48.768;8.850;2022-08-23T09:38:52;5.93;;;1.70;;
24305;SDS011;12423;48.768;8.850;2022-08-23T09:40:57;5.38;;;1.70;;
24305;SDS011;12423;48.768;8.850;2022-08-23T09:43:06;3.60;;;1.60;;
24305;SDS011;12423;48.768;8.850;2022-08-23T09:45:34;3.70;;;1.60;;
24305;SDS011;12423;48.768;8.850;2022-08-23T09:47:39;2.70;;;1.50;;
24305;SDS011;12423;48.768;8.850;2022-08-23T09:49:43;4.60;;;1.60;;
24305;SDS011;12423;48.768;8.850;2022-08-23T09:51:46;5.40;;;1.52;;
24305;SDS011;12423;48.768;8.850;2022-08-23T09:53:52;6.40;;;1.70;;
24305;SDS011;12423;48.768;8.850;2022-08-23T09:56:14;3.45;;;1.80;;
24305;SDS011;12423;48.768;8.850;2022-08-23T09:58:28;7.38;;;1.77;;
24305;SDS011;12423;48.768;8.850;2022-08-23T10:00:35;3.70;;;1.65;;
24305;SDS011;12423;48.768;8.850;2022-08-23T10:02:37;7.30;;;1.60;;
24305;SDS011;12423;48.768;8.850;2022-08-23T10:05:03;3.85;;;1.60;;
24305;SDS011;12423;48.768;8.850;2022-08-23T10:09:30;6.13;;;1.65;;
24305;SDS011;12423;48.768;8.850;2022-08-23T10:11:37;3.80;;;1.60;;
24305;SDS011;12423;48.768;8.850;2022-08-23T10:13:43;3.33;;;1.75;;
24305;SDS011;12423;48.768;8.850;2022-08-23T10:25:36;3.97;;;1.77;;
24305;SDS011;12423;48.768;8.850;2022-08-23T10:30:50;4.38;;;1.70;;
24305;SDS011;12423;48.768;8.850;2022-08-23T10:33:25;4.40;;;1.90;;
24305;SDS011;12423;48.768;8.850;2022-08-23T10:40:31;4.20;;;1.58;;
24305;SDS011;12423;48.768;8.850;2022-08-23T10:45:08;3.33;;;1.55;;
24305;SDS011;12423;48.768;8.850;2022-08-23T10:49:34;4.10;;;1.70;;
24305;SDS011;12423;48.768;8.850;2022-08-23T10:51:44;4.72;;;1.92;;
24305;SDS011;12423;48.768;8.850;2022-08-23T10:53:52;3.70;;;1.70;;
24305;SDS011;12423;48.768;8.850;2022-08-23T10:56:09;3.92;;;1.95;;
24305;SDS011;12423;48.768;8.850;2022-08-23T10:58:23;4.85;;;1.63;;
24305;SDS011;12423;48.768;8.850;2022-08-23T11:00:26;3.75;;;1.50;;
24305;SDS011;12423;48.768;8.850;2022-08-23T11:02:43;4.55;;;1.52;;
24305;SDS011;12423;48.768;8.850;2022-08-23T11:05:04;4.25;;;1.50;;
24305;SDS011;12423;48.768;8.850;2022-08-23T11:07:30;3.43;;;1.50;;
24305;SDS011;12423;48.768;8.850;2022-08-23T11:10:25;4.13;;;1.70;;
24305;SDS011;12423;48.768;8.850;2022-08-23T11:12:19;3.80;;;1.67;;
24305;SDS011;12423;48.768;8.850;2022-08-23T11:14:36;4.82;;;1.52;;
24305;SDS011;12423;48.768;8.850;2022-08-23T11:16:43;3.05;;;1.60;;
24305;SDS011;12423;48.768;8.850;2022-08-23T11:18:47;3.67;;;1.60;;
24305;SDS011;12423;48.768;8.850;2022-08-23T11:23:46;6.80;;;1.42;;
24305;SDS011;12423;48.768;8.850;2022-08-23T11:25:53;7.22;;;1.58;;
24305;SDS011;12423;48.768;8.850;2022-08-23T11:32:37;4.10;;;1.40;;
24305;SDS011;12423;48.768;8.850;2022-08-23T11:34:47;3.42;;;1.70;;
24305;SDS011;12423;48.768;8.850;2022-08-23T11:39:23;3.53;;;1.52;;
24305;SDS011;12423;48.768;8.850;2022-08-23T11:41:25;4.55;;;1.67;;
24305;SDS011;12423;48.768;8.850;2022-08-23T11:45:41;2.50;;;1.35;;
24305;SDS011;12423;48.768;8.850;2022-08-23T11:47:46;3.60;;;1.42;;
24305;SDS011;12423;48.768;8.850;2022-08-23T11:54:19;3.88;;;1.35;;
24305;SDS011;12423;48.768;8.850;2022-08-23T11:59:03;2.83;;;1.33;;
24305;SDS011;12423;48.768;8.850;2022-08-23T12:01:12;4.35;;;1.60;;
24305;SDS011;12423;48.768;8.850;2022-08-23T12:05:39;3.78;;;1.60;;
24305;SDS011;12423;48.768;8.850;2022-08-23T12:10:02;2.70;;;1.20;;
24305;SDS011;12423;48.768;8.850;2022-08-23T12:12:12;4.70;;;1.90;;
24305;SDS011;12423;48.768;8.850;2022-08-23T12:16:32;3.25;;;1.42;;
24305;SDS011;12423;48.768;8.850;2022-08-23T12:18:36;5.45;;;1.40;;
24305;SDS011;12423;48.768;8.850;2022-08-23T12:20:41;3.22;;;1.40;;
24305;SDS011;12423;48.768;8.850;2022-08-23T12:24:59;3.08;;;1.35;;
24305;SDS011;12423;48.768;8.850;2022-08-23T12:33:38;3.08;;;1.30;;
24305;SDS011;12423;48.768;8.850;2022-08-23T12:35:51;2.65;;;1.20;;
24305;SDS011;12423;48.768;8.850;2022-08-23T12:40:40;4.30;;;1.55;;
24305;SDS011;12423;48.768;8.850;2022-08-23T12:42:47;3.00;;;1.30;;
24305;SDS011;12423;48.768;8.850;2022-08-23T12:44:58;4.22;;;2.97;;
24305;SDS011;12423;48.768;8.850;2022-08-23T12:47:15;5.30;;;1.50;;
24305;SDS011;12423;48.768;8.850;2022-08-23T12:49:25;3.72;;;1.85;;
24305;SDS011;12423;48.768;8.850;2022-08-23T12:51:28;2.97;;;1.30;;
24305;SDS011;12423;48.768;8.850;2022-08-23T12:53:32;4.93;;;1.38;;
24305;SDS011;12423;48.768;8.850;2022-08-23T12:55:36;3.85;;;1.45;;
24305;SDS011;12423;48.768;8.850;2022-08-23T12:57:50;3.42;;;1.15;;
24305;SDS011;12423;48.768;8.850;2022-08-23T12:59:57;3.08;;;1.23;;
24305;SDS011;12423;48.768;8.850;2022-08-23T13:02:29;2.38;;;1.25;;
24305;SDS011;12423;48.768;8.850;2022-08-23T13:04:32;3.25;;;1.25;;
24305;SDS011;12423;48.768;8.850;2022-08-23T13:06:41;4.72;;;1.55;;
24305;SDS011;12423;48.768;8.850;2022-08-23T13:08:50;2.72;;;1.20;;
24305;SDS011;12423;48.768;8.850;2022-08-23T13:10:55;3.17;;;1.20;;
24305;SDS011;12423;48.768;8.850;2022-08-23T13:12:56;5.53;;;1.30;;
24305;SDS011;12423;48.768;8.850;2022-08-23T13:14:57;3.70;;;1.20;;
24305;SDS011;12423;48.768;8.850;2022-08-23T13:21:28;4.93;;;1.60;;
24305;SDS011;12423;48.768;8.850;2022-08-23T13:23:30;3.03;;;1.40;;
24305;SDS011;12423;48.768;8.850;2022-08-23T13:25:32;2.92;;;1.50;;
24305;SDS011;12423;48.768;8.850;2022-08-23T13:29:47;4.22;;;1.35;;
24305;SDS011;12423;48.768;8.850;2022-08-23T13:32:33;4.22;;;1.42;;
24305;SDS011;12423;48.768;8.850;2022-08-23T13:34:40;3.65;;;1.40;;
24305;SDS011;12423;48.768;8.850;2022-08-23T13:36:43;4.70;;;1.53;;
24305;SDS011;12423;48.768;8.850;2022-08-23T13:38:44;4.47;;;1.98;;
24305;SDS011;12423;48.768;8.850;2022-08-23T13:43:04;4.45;;;1.55;;
24305;SDS011;12423;48.768;8.850;2022-08-23T13:45:30;3.60;;;1.20;;
24305;SDS011;12423;48.768;8.850;2022-08-23T13:47:34;3.45;;;1.38;;
24305;SDS011;12423;48.768;8.850;2022-08-23T13:49:35;5.63;;;1.50;;
24305;SDS011;12423;48.768;8.850;2022-08-23T13:51:37;5.90;;;1.30;;
24305;SDS011;12423;48.768;8.850;2022-08-23T13:53:40;4.15;;;1.60;;
24305;SDS011;12423;48.768;8.850;2022-08-23T13:57:54;4.82;;;1.40;;
24305;SDS011;12423;48.768;8.850;2022-08-23T13:59:56;4.68;;;1.70;;
24305;SDS011;12423;48.768;8.850;2022-08-23T14:02:06;3.17;;;1.25;;
24305;SDS011;12423;48.768;8.850;2022-08-23T14:04:11;3.13;;;1.33;;
24305;SDS011;12423;48.768;8.850;2022-08-23T14:06:12;4.15;;;1.52;;
24305;SDS011;12423;48.768;8.850;2022-08-23T14:08:13;3.25;;;1.10;;
24305;SDS011;12423;48.768;8.850;2022-08-23T14:10:14;2.38;;;1.35;;
24305;SDS011;12423;48.768;8.850;2022-08-23T14:12:18;2.72;;;1.25;;
24305;SDS011;12423;48.768;8.850;2022-08-23T14:14:22;4.03;;;1.23;;
24305;SDS011;12423;48.768;8.850;2022-08-23T14:16:25;4.53;;;1.20;;
24305;SDS011;12423;48.768;8.850;2022-08-23T14:20:32;6.93;;;1.40;;
24305;SDS011;12423;48.768;8.850;2022-08-23T14:22:34;3.55;;;1.50;;
24305;SDS011;12423;48.768;8.850;2022-08-23T14:24:35;3.22;;;1.42;;